Capitol Logistics 662


SPJC
Jorge Chávez International Airport
Lima, PE
KMIA
Miami International Airport
Miami, US

Route Details

Aircraft Information
Primary: Boeing 767-300BDSF
Backup: Not Available
Route Data
Distance: 2376nm
Sched. Duration: 6h 00m
Avg. Duration: 5h 29m (-70m)
Times Flown: 8
Recm'd Route: XOPLI UG448 IKBIX Y183 PEAKY DVALL CURSO5
Planned Altitude: 34,000ft
Origin Wx: SPJC 030200Z 19006KT 9999 SCT007 OVC013 18/16 Q1016 NOSIG RMK PP000
Dest. Wx: KMIA 030156Z 11007KT 2 1/2SM RA SCT023CB BKN037 OVC130 26/23 A3006 RMK AO2 CB OHD MOV W P0000 T02610233
Notes:

Financial History
Total Freight: 813,933lbs
Average Load: 101,742lbs/flt
Fuel Used: 503,306lbs
Avg. Fuel Used: 62,913lbs/flt
Fuel Expense: $402,645
Avg. Fuel Expense: $50,331
Avg. Fuel Cost: $0.80/lbs
Total Gross Income: $2,416,916
Pilot Pay: $1,792
Total Expenses: $261,443
Total Revenue: $1,742,149
Average Revenue: $302,114.47